Time;durP1;ratioP1;P1;durP2;ratioP2;P2;SDS_P1;SDS_P2;PMS_P1;PMS_P2;Temp;Humidity;BMP_temperature;BMP_pressure;BME280_temperature;BME280_humidity;BME280_pressure;Samples;Min_cycle;Max_cycle;Signal;HPM_P1;HPM_P2
2022/10/30 00:01:51;;;;;;;0.20;0.20;;;18.10;95.50;;;;;;4017866;29;20068;-63
2022/10/30 00:04:32;;;;;;;0.00;0.00;;;18.10;95.50;;;;;;4017229;29;20056;-63
2022/10/30 00:07:14;;;;;;;0.00;0.00;;;18.10;95.50;;;;;;4017441;29;20060;-63
2022/10/30 00:09:56;;;;;;;0.75;0.65;;;18.10;95.60;;;;;;4017453;29;20052;-63
2022/10/30 00:12:36;;;;;;;0.32;0.32;;;18.10;95.50;;;;;;4017407;29;20100;-63
2022/10/30 00:15:17;;;;;;;0.13;0.13;;;18.10;95.60;;;;;;4010697;29;20073;-63
2022/10/30 00:17:58;;;;;;;0.10;0.10;;;18.10;95.60;;;;;;4017081;29;20514;-63
2022/10/30 00:20:39;;;;;;;2.70;1.55;;;18.10;95.50;;;;;;4017323;29;20064;-63
2022/10/30 00:23:20;;;;;;;0.22;0.22;;;18.10;95.90;;;;;;4017193;29;20057;-63
2022/10/30 00:26:07;;;;;;;7.25;1.08;;;18.10;95.70;;;;;;4017513;29;20195;-63
2022/10/30 00:28:50;;;;;;;0.63;0.63;;;18.10;95.50;;;;;;4017370;29;20524;-62
2022/10/30 00:31:31;;;;;;;0.10;0.10;;;18.10;95.60;;;;;;4006051;29;20060;-62
2022/10/30 00:34:12;;;;;;;0.30;0.30;;;18.10;95.60;;;;;;3991233;29;20105;-62
2022/10/30 00:36:53;;;;;;;5.78;1.75;;;18.10;95.60;;;;;;4002495;29;20453;-62
2022/10/30 00:39:34;;;;;;;0.00;0.00;;;18.10;95.60;;;;;;4000988;29;20095;-62
2022/10/30 00:42:17;;;;;;;1.17;1.17;;;18.10;95.60;;;;;;4005287;29;20064;-62
2022/10/30 00:44:59;;;;;;;0.00;0.00;;;18.10;95.60;;;;;;4006302;29;20061;-62
2022/10/30 00:47:43;;;;;;;0.00;0.00;;;18.10;95.60;;;;;;4005958;29;20409;-62
2022/10/30 00:50:27;;;;;;;1.35;0.80;;;18.10;95.60;;;;;;4017164;29;20065;-62
2022/10/30 00:53:11;;;;;;;0.35;0.35;;;18.10;95.60;;;;;;4016841;29;20509;-62
2022/10/30 00:55:55;;;;;;;0.00;0.00;;;18.10;95.60;;;;;;4017038;29;20067;-63
2022/10/30 00:58:42;;;;;;;0.13;0.13;;;18.10;95.60;;;;;;4006055;29;20789;-62
2022/10/30 01:01:26;;;;;;;0.10;0.10;;;18.10;95.60;;;;;;4016895;29;20061;-62
2022/10/30 01:04:07;;;;;;;0.30;0.30;;;18.10;95.60;;;;;;4015673;29;20068;-63
2022/10/30 01:06:50;;;;;;;0.28;0.28;;;18.00;95.60;;;;;;4016861;29;20060;-62
2022/10/30 01:09:32;;;;;;;0.00;0.00;;;18.00;95.60;;;;;;4020333;29;20065;-63
2022/10/30 01:12:13;;;;;;;0.00;0.00;;;18.00;95.60;;;;;;4005671;29;20059;-62
2022/10/30 01:14:59;;;;;;;0.13;0.13;;;18.00;96.00;;;;;;4005026;29;20056;-63
2022/10/30 01:18:06;;;;;;;0.00;0.00;;;18.00;95.60;;;;;;4005005;29;20524;-63
2022/10/30 01:21:03;;;;;;;0.00;0.00;;;18.00;95.60;;;;;;4004903;29;20101;-63
2022/10/30 01:23:54;;;;;;;0.00;0.00;;;18.00;95.60;;;;;;3989717;29;20186;-62
2022/10/30 01:26:45;;;;;;;0.00;0.00;;;18.00;95.60;;;;;;3990435;29;20113;-62
2022/10/30 01:29:35;;;;;;;0.57;0.57;;;18.00;95.60;;;;;;3990524;29;20061;-62
2022/10/30 01:32:33;;;;;;;2.42;1.65;;;18.00;95.70;;;;;;4007268;29;20048;-62
2022/10/30 01:35:20;;;;;;;0.65;0.65;;;18.00;95.70;;;;;;4004987;29;20185;-63
2022/10/30 01:38:06;;;;;;;0.88;0.88;;;18.00;95.70;;;;;;4004835;29;20052;-63
2022/10/30 01:40:47;;;;;;;0.08;0.08;;;18.00;95.70;;;;;;4005563;29;20060;-63
2022/10/30 01:43:29;;;;;;;0.45;0.45;;;18.00;95.70;;;;;;3990321;29;20558;-63
2022/10/30 01:46:26;;;;;;;0.05;0.05;;;18.00;95.70;;;;;;3989530;29;20056;-63
2022/10/30 01:49:21;;;;;;;0.20;0.20;;;18.00;95.70;;;;;;4000488;29;20057;-63
2022/10/30 01:52:12;;;;;;;0.00;0.00;;;18.00;95.90;;;;;;4009018;29;20069;-62
2022/10/30 01:55:00;;;;;;;0.65;0.65;;;18.00;95.70;;;;;;3990246;29;20137;-63
2022/10/30 01:57:47;;;;;;;1.15;1.08;;;18.00;95.70;;;;;;3990097;29;20194;-63
2022/10/30 02:00:28;;;;;;;0.00;0.00;;;18.00;95.70;;;;;;3989861;29;20543;-62
2022/10/30 02:03:10;;;;;;;0.43;0.43;;;17.90;95.70;;;;;;4001061;29;20498;-62
2022/10/30 02:05:53;;;;;;;0.17;0.17;;;17.90;95.70;;;;;;3989725;29;20049;-63
2022/10/30 02:08:36;;;;;;;0.10;0.10;;;18.00;95.80;;;;;;3993155;29;20176;-63
2022/10/30 02:11:17;;;;;;;0.00;0.00;;;18.00;95.80;;;;;;4004498;29;20097;-62
2022/10/30 02:13:58;;;;;;;0.03;0.03;;;17.90;95.80;;;;;;4004790;29;20091;-63
2022/10/30 02:16:45;;;;;;;0.00;0.00;;;18.00;95.80;;;;;;4004796;29;20064;-63
2022/10/30 02:19:26;;;;;;;0.85;0.85;;;17.90;95.80;;;;;;4016306;29;20056;-63
2022/10/30 02:22:08;;;;;;;0.00;0.00;;;17.90;95.80;;;;;;4004858;29;20052;-62
2022/10/30 02:24:50;;;;;;;0.00;0.00;;;17.90;95.80;;;;;;3990932;29;20413;-62
2022/10/30 02:27:34;;;;;;;0.43;0.20;;;17.90;95.80;;;;;;4002418;29;20087;-63
2022/10/30 02:30:15;;;;;;;0.00;0.00;;;17.90;95.80;;;;;;4000386;29;20074;-63
2022/10/30 02:32:56;;;;;;;1.23;1.17;;;17.90;95.80;;;;;;3989487;29;20057;-63
2022/10/30 02:35:37;;;;;;;0.10;0.10;;;17.90;95.80;;;;;;3993716;29;20508;-63
2022/10/30 02:38:19;;;;;;;0.65;0.65;;;17.90;95.80;;;;;;4015791;29;20072;-63
2022/10/30 02:41:02;;;;;;;9.10;0.95;;;17.90;95.80;;;;;;4004559;29;20060;-63
2022/10/30 02:43:43;;;;;;;0.05;0.05;;;17.90;95.80;;;;;;4015716;29;20190;-63
2022/10/30 02:46:24;;;;;;;0.00;0.00;;;17.90;95.80;;;;;;4015429;29;20205;-63
2022/10/30 02:49:05;;;;;;;0.20;0.20;;;17.90;95.80;;;;;;4004611;29;20497;-63
2022/10/30 02:51:46;;;;;;;0.05;0.05;;;17.90;95.80;;;;;;4004722;29;20056;-63
2022/10/30 02:54:28;;;;;;;0.10;0.10;;;17.90;95.80;;;;;;4004344;29;20145;-63
2022/10/30 02:57:09;;;;;;;0.00;0.00;;;17.90;95.80;;;;;;4004588;29;20060;-62
2022/10/30 02:59:51;;;;;;;5.30;1.45;;;17.90;95.90;;;;;;4004845;29;20056;-63
2022/10/30 03:02:32;;;;;;;0.45;0.45;;;17.90;95.90;;;;;;4015653;29;20190;-63
2022/10/30 03:05:13;;;;;;;0.38;0.38;;;17.90;95.90;;;;;;3996802;29;20056;-63
2022/10/30 03:07:55;;;;;;;0.00;0.00;;;17.90;95.90;;;;;;4007506;29;20545;-62
2022/10/30 03:10:37;;;;;;;0.52;0.52;;;17.90;95.90;;;;;;4018727;29;20136;-62
2022/10/30 03:13:18;;;;;;;0.32;0.32;;;17.90;95.90;;;;;;4002789;29;20053;-62
2022/10/30 03:16:02;;;;;;;0.00;0.00;;;17.90;95.90;;;;;;3991856;29;20056;-63
2022/10/30 03:18:45;;;;;;;1.23;1.13;;;17.90;95.90;;;;;;4003600;29;20190;-63
2022/10/30 03:21:27;;;;;;;0.03;0.03;;;17.90;95.90;;;;;;4007017;29;20064;-62
2022/10/30 03:24:08;;;;;;;0.15;0.15;;;17.90;95.90;;;;;;4018367;29;20060;-62
2022/10/30 03:26:50;;;;;;;0.00;0.00;;;17.90;95.90;;;;;;4003252;29;20064;-62
2022/10/30 03:29:31;;;;;;;0.77;0.77;;;17.90;95.90;;;;;;3991948;29;20186;-62
2022/10/30 03:32:12;;;;;;;0.00;0.00;;;17.80;95.90;;;;;;4015399;29;20072;-63
2022/10/30 03:35:04;;;;;;;0.85;0.85;;;17.80;95.90;;;;;;3991548;29;20065;-63
2022/10/30 03:37:45;;;;;;;0.00;0.00;;;17.80;95.90;;;;;;3991813;29;20080;-63
2022/10/30 03:40:26;;;;;;;0.47;0.47;;;17.80;95.90;;;;;;3992058;29;20061;-63
2022/10/30 03:43:09;;;;;;;0.10;0.10;;;17.80;95.90;;;;;;4005254;29;20065;-63
2022/10/30 03:45:53;;;;;;;0.95;0.95;;;17.80;95.90;;;;;;4006502;29;20125;-63
2022/10/30 03:48:33;;;;;;;0.47;0.47;;;17.80;95.90;;;;;;4002683;29;20065;-63
2022/10/30 03:51:15;;;;;;;0.25;0.25;;;17.80;95.90;;;;;;3994170;29;20445;-63
2022/10/30 03:53:58;;;;;;;0.28;0.28;;;17.80;95.90;;;;;;4006904;29;20079;-62
2022/10/30 03:56:39;;;;;;;;;;;17.80;95.90;;;;;;4006862;29;20512;-63
2022/10/30 03:59:23;;;;;;;0.10;0.10;;;17.80;96.00;;;;;;4006688;29;19935;-63
2022/10/30 04:02:26;;;;;;;0.20;0.20;;;17.80;95.90;;;;;;4006324;29;20057;-63
2022/10/30 04:05:08;;;;;;;0.05;0.05;;;17.80;95.90;;;;;;3991475;29;20138;-63
2022/10/30 04:07:54;;;;;;;0.20;0.20;;;17.80;95.90;;;;;;4006069;29;20155;-62
2022/10/30 04:10:35;;;;;;;0.10;0.10;;;17.80;96.00;;;;;;4021538;29;20063;-62
2022/10/30 04:13:21;;;;;;;0.22;0.22;;;17.80;96.00;;;;;;4021676;29;20217;-63
2022/10/30 04:16:06;;;;;;;0.00;0.00;;;17.80;96.00;;;;;;4021551;29;20052;-63
2022/10/30 04:18:47;;;;;;;0.65;0.65;;;17.80;96.00;;;;;;4032974;29;20188;-63
2022/10/30 04:21:28;;;;;;;0.00;0.00;;;17.80;96.00;;;;;;4022037;29;20059;-63
2022/10/30 04:24:10;;;;;;;;;;;17.80;96.00;;;;;;4033561;29;20056;-63
2022/10/30 04:26:51;;;;;;;0.03;0.03;;;17.80;96.00;;;;;;4021603;29;19941;-62
2022/10/30 04:29:32;;;;;;;0.00;0.00;;;17.80;96.00;;;;;;4010939;29;20108;-62
2022/10/30 04:32:14;;;;;;;0.00;0.00;;;17.80;96.40;;;;;;4021334;29;20052;-63
2022/10/30 04:34:56;;;;;;;0.20;0.20;;;17.80;96.00;;;;;;4032528;29;20064;-63
2022/10/30 04:37:38;;;;;;;0.10;0.10;;;17.80;96.10;;;;;;3995217;29;20080;-63
2022/10/30 04:40:19;;;;;;;0.10;0.10;;;17.70;96.00;;;;;;4012903;29;20047;-63
2022/10/30 04:43:07;;;;;;;0.05;0.05;;;17.80;96.10;;;;;;4021528;29;20169;-63
2022/10/30 04:45:48;;;;;;;0.05;0.05;;;17.70;96.00;;;;;;4021373;29;20056;-63
2022/10/30 04:48:33;;;;;;;0.10;0.10;;;17.80;96.10;;;;;;4021356;29;20075;-63
2022/10/30 04:51:14;;;;;;;0.00;0.00;;;17.70;96.00;;;;;;4018585;29;20060;-62
2022/10/30 04:53:57;;;;;;;0.00;0.00;;;17.70;96.10;;;;;;4006279;29;20489;-60
2022/10/30 04:56:40;;;;;;;0.60;0.60;;;17.70;96.10;;;;;;4005578;29;20064;-62
2022/10/30 04:59:21;;;;;;;0.00;0.00;;;17.70;96.00;;;;;;4005406;29;20053;-62
2022/10/30 05:02:04;;;;;;;0.05;0.05;;;17.70;96.00;;;;;;4005809;29;20049;-62
2022/10/30 05:04:46;;;;;;;0.00;0.00;;;17.80;96.10;;;;;;4005853;29;20127;-62
2022/10/30 05:07:27;;;;;;;0.00;0.00;;;17.70;96.00;;;;;;4017418;29;20064;-62
2022/10/30 05:10:12;;;;;;;0.95;0.95;;;17.70;96.40;;;;;;4009848;29;20075;-62
2022/10/30 05:12:53;;;;;;;0.08;0.08;;;17.70;96.00;;;;;;4021051;29;20147;-62
2022/10/30 05:15:34;;;;;;;0.10;0.10;;;17.70;96.00;;;;;;4021086;29;20047;-62
2022/10/30 05:18:15;;;;;;;0.60;0.60;;;17.70;96.00;;;;;;4032053;29;20193;-63
2022/10/30 05:20:58;;;;;;;2.08;1.67;;;17.70;96.00;;;;;;4020129;29;20124;-62
2022/10/30 05:23:39;;;;;;;2.40;0.57;;;17.70;96.00;;;;;;4020584;29;20063;-62
2022/10/30 05:26:20;;;;;;;0.00;0.00;;;17.70;96.00;;;;;;4004663;29;20082;-62
2022/10/30 05:29:00;;;;;;;0.00;0.00;;;17.70;96.00;;;;;;4004778;29;20163;-62
2022/10/30 05:31:41;;;;;;;0.10;0.10;;;17.70;96.00;;;;;;4006316;29;20052;-62
2022/10/30 05:34:25;;;;;;;0.10;0.10;;;17.70;96.00;;;;;;4032101;29;20474;-62
2022/10/30 05:37:08;;;;;;;0.10;0.10;;;17.70;96.10;;;;;;4020818;29;20583;-62
2022/10/30 05:39:49;;;;;;;0.82;0.70;;;17.70;96.00;;;;;;4020205;29;20442;-62
2022/10/30 05:42:49;;;;;;;0.00;0.00;;;17.70;96.10;;;;;;4004972;29;20185;-62
2022/10/30 05:45:31;;;;;;;0.20;0.20;;;17.70;96.10;;;;;;3995073;29;20076;-63
2022/10/30 05:48:13;;;;;;;0.08;0.08;;;17.70;96.10;;;;;;4005520;29;20068;-63
2022/10/30 05:50:57;;;;;;;0.65;0.65;;;17.70;96.10;;;;;;4018336;29;20094;-63
2022/10/30 05:53:42;;;;;;;0.00;0.00;;;17.70;96.10;;;;;;4005030;29;20508;-63
2022/10/30 05:56:23;;;;;;;0.15;0.15;;;17.70;96.10;;;;;;4005177;29;20401;-62
2022/10/30 05:59:04;;;;;;;0.22;0.22;;;17.70;96.10;;;;;;4005262;29;20133;-62
2022/10/30 06:01:45;;;;;;;0.43;0.43;;;17.60;96.00;;;;;;4019923;29;20071;-63
2022/10/30 06:04:26;;;;;;;0.17;0.17;;;17.60;96.10;;;;;;4020465;29;20060;-63
2022/10/30 06:07:07;;;;;;;0.00;0.00;;;17.60;96.10;;;;;;4020571;29;20087;-62
2022/10/30 06:09:49;;;;;;;1.20;0.80;;;17.60;96.10;;;;;;4019328;29;20056;-62
2022/10/30 06:12:39;;;;;;;0.20;0.20;;;17.60;96.10;;;;;;4020058;29;20068;-62
2022/10/30 06:15:38;;;;;;;0.20;0.20;;;17.60;96.10;;;;;;4031393;29;20518;-62
2022/10/30 06:18:19;;;;;;;0.05;0.05;;;17.60;96.10;;;;;;4020271;29;20619;-63
2022/10/30 06:21:05;;;;;;;0.00;0.00;;;17.60;96.10;;;;;;4016313;29;20445;-62
2022/10/30 06:23:58;;;;;;;0.10;0.10;;;17.60;96.10;;;;;;4004593;29;20196;-62
2022/10/30 06:26:53;;;;;;;0.00;0.00;;;17.60;96.10;;;;;;4004842;29;20055;-62
2022/10/30 06:29:34;;;;;;;0.32;0.32;;;17.60;96.10;;;;;;4011642;29;20064;-62
2022/10/30 06:32:15;;;;;;;0.00;0.00;;;17.60;96.10;;;;;;4020183;29;20144;-62
2022/10/30 06:34:57;;;;;;;0.10;0.10;;;17.60;96.70;;;;;;4009107;29;20618;-64
2022/10/30 06:37:39;;;;;;;0.60;0.60;;;17.60;96.40;;;;;;4033779;29;20060;-64
2022/10/30 06:40:23;;;;;;;0.20;0.20;;;17.60;96.30;;;;;;4022872;29;20060;-63
2022/10/30 06:43:34;;;;;;;2.63;1.77;;;17.70;96.30;;;;;;3975545;29;20112;-62
2022/10/30 06:46:19;;;;;;;0.00;0.00;;;17.70;96.60;;;;;;4016848;29;20609;-62
2022/10/30 06:49:00;;;;;;;0.43;0.43;;;17.70;96.20;;;;;;4022703;29;20504;-62
2022/10/30 06:51:41;;;;;;;;;;;17.70;96.20;;;;;;4023309;29;20134;-62
2022/10/30 06:54:22;;;;;;;12.45;2.78;;;17.60;96.20;;;;;;4022935;29;19996;-63
2022/10/30 06:57:29;;;;;;;0.00;0.00;;;17.60;96.10;;;;;;4033630;29;20060;-63
2022/10/30 07:00:25;;;;;;;0.00;0.00;;;17.60;96.10;;;;;;4022441;29;20059;-63
2022/10/30 07:03:25;;;;;;;0.00;0.00;;;17.70;96.20;;;;;;4033604;29;20072;-62
2022/10/30 07:06:06;;;;;;;0.00;0.00;;;17.60;96.20;;;;;;4022501;29;20064;-63
2022/10/30 07:08:47;;;;;;;0.13;0.13;;;17.60;96.20;;;;;;4020683;29;20712;-63
2022/10/30 07:11:29;;;;;;;0.00;0.00;;;17.60;96.20;;;;;;4007384;29;20705;-63
2022/10/30 07:14:15;;;;;;;0.00;0.00;;;17.60;96.20;;;;;;4018807;29;20060;-63
2022/10/30 07:17:23;;;;;;;0.20;0.20;;;17.60;96.20;;;;;;4018245;29;20056;-63
2022/10/30 07:20:10;;;;;;;0.20;0.20;;;17.60;96.20;;;;;;4000582;29;20052;-63
2022/10/30 07:22:51;;;;;;;0.00;0.00;;;17.60;96.20;;;;;;4007034;29;20146;-63
2022/10/30 07:25:32;;;;;;;7.47;2.10;;;17.60;96.20;;;;;;4007029;29;20096;-63
2022/10/30 07:28:30;;;;;;;0.85;0.85;;;17.60;96.10;;;;;;4006458;29;20410;-63
2022/10/30 07:31:30;;;;;;;0.80;0.80;;;17.60;96.10;;;;;;4017855;29;20187;-63
2022/10/30 07:34:48;;;;;;;0.68;0.68;;;17.60;96.10;;;;;;4003027;29;20520;-63
2022/10/30 07:37:35;;;;;;;0.10;0.10;;;17.60;96.10;;;;;;4011283;29;20446;-63
2022/10/30 07:40:21;;;;;;;0.40;0.40;;;17.60;96.10;;;;;;4006770;29;20182;-63
2022/10/30 07:43:05;;;;;;;0.70;0.70;;;17.60;96.00;;;;;;4018164;29;20580;-63
2022/10/30 07:45:56;;;;;;;;;;;17.60;96.00;;;;;;4018073;29;20063;-63
2022/10/30 07:48:46;;;;;;;0.00;0.00;;;17.60;96.00;;;;;;4017413;29;19931;-63
2022/10/30 07:51:41;;;;;;;0.00;0.00;;;17.60;96.00;;;;;;4006253;29;20413;-63
2022/10/30 07:54:23;;;;;;;0.43;0.43;;;17.60;96.00;;;;;;4002766;29;20078;-63
2022/10/30 07:57:04;;;;;;;0.22;0.22;;;17.60;96.00;;;;;;3991591;29;20599;-63
2022/10/30 08:00:05;;;;;;;0.10;0.10;;;17.60;96.00;;;;;;4002621;29;20062;-63
2022/10/30 08:02:56;;;;;;;0.15;0.15;;;17.60;95.90;;;;;;4002948;29;20057;-63
2022/10/30 08:06:04;;;;;;;0.30;0.30;;;17.60;95.90;;;;;;4002515;29;20061;-63
2022/10/30 08:08:50;;;;;;;0.45;0.45;;;17.60;95.90;;;;;;3991309;29;20070;-62
2022/10/30 08:11:39;;;;;;;0.05;0.05;;;17.60;95.90;;;;;;3997680;29;20515;-62
2022/10/30 08:14:20;;;;;;;0.00;0.00;;;17.60;95.90;;;;;;4006074;29;20052;-62
2022/10/30 08:17:01;;;;;;;0.63;0.63;;;17.60;95.80;;;;;;4006632;29;20073;-62
2022/10/30 08:19:42;;;;;;;0.00;0.00;;;17.60;95.80;;;;;;4003433;29;20060;-62
2022/10/30 08:22:24;;;;;;;0.00;0.00;;;17.60;95.70;;;;;;4014476;29;20163;-63
2022/10/30 08:25:14;;;;;;;0.10;0.10;;;17.60;95.70;;;;;;4006052;29;20057;-62
2022/10/30 08:27:56;;;;;;;0.82;0.82;;;17.60;95.60;;;;;;3993114;29;20061;-62
2022/10/30 08:30:39;;;;;;;0.65;0.65;;;17.60;95.60;;;;;;4006060;29;20504;-62
2022/10/30 08:33:24;;;;;;;0.00;0.00;;;17.60;95.60;;;;;;3999660;29;20120;-62
2022/10/30 08:36:06;;;;;;;0.00;0.00;;;17.60;95.60;;;;;;4013665;29;20084;-62
2022/10/30 08:38:46;;;;;;;;;;;17.60;95.60;;;;;;4016256;29;20101;-62
2022/10/30 08:41:39;;;;;;;0.00;0.00;;;17.60;95.60;;;;;;4003816;29;20023;-62
2022/10/30 08:44:20;;;;;;;0.60;0.60;;;17.60;95.60;;;;;;4011580;29;20069;-62
2022/10/30 08:47:36;;;;;;;1.17;0.82;;;17.60;95.60;;;;;;3954215;29;20062;-62
2022/10/30 08:50:17;;;;;;;0.00;0.00;;;17.60;95.60;;;;;;4005987;29;20509;-62
2022/10/30 08:53:01;;;;;;;0.93;0.93;;;17.60;95.60;;;;;;4023537;29;20052;-62
2022/10/30 08:55:42;;;;;;;0.10;0.10;;;17.60;95.50;;;;;;3990594;29;20053;-60
2022/10/30 08:58:34;;;;;;;1.08;1.08;;;17.60;95.50;;;;;;4003110;29;20060;-61
2022/10/30 09:01:16;;;;;;;0.10;0.10;;;17.60;95.50;;;;;;4004914;29;20064;-60
2022/10/30 09:04:15;;;;;;;7.03;4.18;;;17.60;95.40;;;;;;4024614;29;20064;-61
2022/10/30 09:07:00;;;;;;;0.10;0.10;;;17.70;95.40;;;;;;4011227;29;20069;-61
2022/10/30 09:10:00;;;;;;;0.30;0.30;;;17.60;95.40;;;;;;4014418;29;20156;-61
2022/10/30 09:12:44;;;;;;;0.20;0.20;;;17.70;95.80;;;;;;4016291;29;20162;-61
2022/10/30 09:15:27;;;;;;;0.00;0.00;;;17.70;95.30;;;;;;4005146;29;20117;-61
2022/10/30 09:18:09;;;;;;;0.63;0.63;;;17.70;95.30;;;;;;4005267;29;20061;-62
2022/10/30 09:20:50;;;;;;;2.10;0.52;;;17.70;95.30;;;;;;4001947;29;20162;-62
2022/10/30 09:23:31;;;;;;;0.17;0.17;;;17.70;95.30;;;;;;4014898;29;20065;-62
2022/10/30 09:26:47;;;;;;;2.53;2.42;;;17.70;95.30;;;;;;3952633;30;20082;-61
2022/10/30 09:29:38;;;;;;;0.10;0.10;;;17.70;95.30;;;;;;4002343;29;20128;-62
2022/10/30 09:32:34;;;;;;;0.28;0.28;;;17.70;95.70;;;;;;4005477;29;20053;-61
2022/10/30 09:35:21;;;;;;;2.17;1.35;;;17.70;95.30;;;;;;4004553;29;20417;-61
2022/10/30 09:38:03;;;;;;;0.00;0.00;;;17.70;95.40;;;;;;4005137;29;20408;-62
2022/10/30 09:41:01;;;;;;;0.00;0.00;;;17.80;95.40;;;;;;4004046;29;20245;-62
2022/10/30 09:43:54;;;;;;;4.45;2.17;;;17.80;95.40;;;;;;3996716;29;20064;-62
2022/10/30 09:46:48;;;;;;;0.00;0.00;;;17.80;95.40;;;;;;4002368;29;20065;-62
2022/10/30 09:49:50;;;;;;;0.30;0.30;;;17.80;95.40;;;;;;3991143;29;20093;-62
2022/10/30 09:52:39;;;;;;;2.63;2.42;;;17.80;95.40;;;;;;4004524;29;20194;-62
2022/10/30 09:55:34;;;;;;;0.52;0.52;;;17.80;95.30;;;;;;3999409;29;20052;-62
2022/10/30 09:58:24;;;;;;;2.42;0.85;;;17.80;95.70;;;;;;4004284;29;20065;-62
2022/10/30 10:01:16;;;;;;;0.00;0.00;;;17.80;95.30;;;;;;4013149;29;20061;-62
2022/10/30 10:04:21;;;;;;;0.00;0.00;;;17.90;95.40;;;;;;4003448;29;20085;-62
2022/10/30 10:07:32;;;;;;;;;;;17.90;95.40;;;;;;3991099;29;20101;-61
2022/10/30 10:10:39;;;;;;;0.08;0.08;;;17.90;95.40;;;;;;4013000;29;20280;-62
2022/10/30 10:13:37;;;;;;;0.10;0.10;;;17.90;95.40;;;;;;4003883;29;20069;-62
2022/10/30 10:16:19;;;;;;;2.85;1.65;;;17.90;95.40;;;;;;4003122;29;20100;-62
2022/10/30 10:19:20;;;;;;;0.08;0.08;;;17.90;95.40;;;;;;4011503;29;20132;-62
2022/10/30 10:22:02;;;;;;;0.10;0.10;;;17.90;95.40;;;;;;4008628;29;20068;-62
2022/10/30 10:24:46;;;;;;;1.00;0.90;;;18.00;95.50;;;;;;4015765;29;20056;-62
2022/10/30 10:27:39;;;;;;;0.20;0.20;;;18.00;95.50;;;;;;4015262;29;20144;-62
2022/10/30 10:30:22;;;;;;;0.80;0.80;;;18.00;95.50;;;;;;4015231;29;20105;-62
2022/10/30 10:33:30;;;;;;;6.13;1.70;;;18.00;95.50;;;;;;4015969;29;20071;-62
2022/10/30 10:36:23;;;;;;;0.55;0.55;;;18.10;95.50;;;;;;4016093;29;20061;-62
2022/10/30 10:39:17;;;;;;;0.08;0.08;;;18.10;95.50;;;;;;4021945;29;20606;-62
2022/10/30 10:42:09;;;;;;;0.30;0.30;;;18.10;95.50;;;;;;4000841;29;20053;-62
2022/10/30 10:45:06;;;;;;;0.10;0.10;;;18.10;95.50;;;;;;4000599;29;20060;-62
2022/10/30 10:48:17;;;;;;;0.05;0.05;;;18.20;95.50;;;;;;4006260;29;20257;-62
2022/10/30 10:51:03;;;;;;;0.00;0.00;;;18.20;95.60;;;;;;4014913;29;20061;-61
2022/10/30 10:53:50;;;;;;;0.10;0.10;;;18.20;95.60;;;;;;4015701;29;20064;-61
2022/10/30 10:56:34;;;;;;;0.28;0.28;;;18.20;95.60;;;;;;4015949;29;20515;-62
2022/10/30 10:59:21;;;;;;;0.10;0.10;;;18.20;95.50;;;;;;4000348;29;20077;-62
2022/10/30 11:02:23;;;;;;;0.00;0.00;;;18.30;95.60;;;;;;4000193;29;20550;-62
2022/10/30 11:05:08;;;;;;;0.00;0.00;;;18.30;95.50;;;;;;3999878;29;20064;-62
2022/10/30 11:07:50;;;;;;;0.00;0.00;;;18.40;95.60;;;;;;4008517;29;20517;-62
2022/10/30 11:10:31;;;;;;;0.00;0.00;;;18.40;95.50;;;;;;4015184;29;20580;-62
2022/10/30 11:13:13;;;;;;;0.00;0.00;;;18.40;95.50;;;;;;4015782;29;20047;-62
2022/10/30 11:16:03;;;;;;;1.17;1.08;;;18.50;95.60;;;;;;4004308;29;20550;-62
2022/10/30 11:18:46;;;;;;;0.35;0.35;;;18.60;95.60;;;;;;4015367;29;20450;-62
2022/10/30 11:21:29;;;;;;;1.60;1.60;;;18.60;95.60;;;;;;4016766;29;20537;-62
2022/10/30 11:24:27;;;;;;;0.08;0.08;;;18.60;95.60;;;;;;4013720;29;20587;-61
2022/10/30 11:27:24;;;;;;;0.08;0.08;;;18.70;95.50;;;;;;4002943;29;20557;-62
2022/10/30 11:30:06;;;;;;;0.10;0.10;;;18.70;95.50;;;;;;4017093;29;20056;-62
2022/10/30 11:32:49;;;;;;;0.00;0.00;;;18.80;95.40;;;;;;4018508;29;20182;-62
2022/10/30 11:35:31;;;;;;;0.90;0.90;;;18.80;95.40;;;;;;4013895;29;20151;-63
2022/10/30 11:38:18;;;;;;;1.05;1.05;;;18.80;95.40;;;;;;4018499;29;20059;-63
2022/10/30 11:41:01;;;;;;;0.40;0.40;;;18.90;95.50;;;;;;4015465;29;20138;-63
2022/10/30 11:43:44;;;;;;;0.00;0.00;;;18.90;95.40;;;;;;4016480;29;20069;-63
2022/10/30 11:46:25;;;;;;;1.20;1.20;;;19.00;95.40;;;;;;4016351;29;20128;-63
2022/10/30 11:49:23;;;;;;;0.00;0.00;;;19.00;95.40;;;;;;4016112;29;20409;-63
2022/10/30 11:52:05;;;;;;;0.00;0.00;;;19.00;95.40;;;;;;4015024;29;20061;-63
2022/10/30 11:54:50;;;;;;;0.57;0.57;;;19.10;95.40;;;;;;4015498;29;20048;-62
2022/10/30 11:57:35;;;;;;;0.00;0.00;;;19.10;95.40;;;;;;4015282;29;20056;-63
2022/10/30 12:00:19;;;;;;;0.40;0.40;;;19.10;95.40;;;;;;4015425;29;20065;-62
2022/10/30 12:03:00;;;;;;;0.22;0.22;;;19.10;95.40;;;;;;4015324;29;20056;-62
2022/10/30 12:05:43;;;;;;;0.05;0.05;;;19.20;95.40;;;;;;4015445;29;20454;-63
2022/10/30 12:08:26;;;;;;;0.10;0.10;;;19.20;95.40;;;;;;4015111;29;20053;-63
2022/10/30 12:11:07;;;;;;;0.15;0.15;;;19.20;95.30;;;;;;4001805;29;20110;-62
2022/10/30 12:13:48;;;;;;;0.00;0.00;;;19.20;95.30;;;;;;4000176;29;20070;-62
2022/10/30 12:16:30;;;;;;;0.00;0.00;;;19.20;95.30;;;;;;4015329;29;20065;-63
2022/10/30 12:19:15;;;;;;;0.10;0.10;;;19.20;95.30;;;;;;4015334;29;21110;-62
2022/10/30 12:22:00;;;;;;;0.00;0.00;;;19.20;95.30;;;;;;4015181;29;20068;-63
2022/10/30 12:24:44;;;;;;;2.47;2.30;;;19.20;95.30;;;;;;4015077;29;20075;-62
2022/10/30 12:27:26;;;;;;;0.20;0.20;;;19.20;95.30;;;;;;4014857;29;20501;-63
2022/10/30 12:30:16;;;;;;;0.00;0.00;;;19.20;95.30;;;;;;4014829;29;20052;-62
2022/10/30 12:33:00;;;;;;;0.00;0.00;;;19.30;95.30;;;;;;4015103;29;20061;-63
2022/10/30 12:35:48;;;;;;;0.80;0.73;;;19.30;95.20;;;;;;4022117;29;20089;-63
2022/10/30 12:38:36;;;;;;;0.00;0.00;;;19.30;95.20;;;;;;4000047;29;20469;-63
2022/10/30 12:41:23;;;;;;;0.30;0.30;;;19.30;95.20;;;;;;4002383;29;20187;-62
2022/10/30 12:44:11;;;;;;;0.00;0.00;;;19.30;95.20;;;;;;4015070;29;20096;-63
2022/10/30 12:46:59;;;;;;;0.00;0.00;;;19.30;95.20;;;;;;3999362;29;20064;-62
2022/10/30 12:49:43;;;;;;;1.30;1.15;;;19.30;95.20;;;;;;3999878;29;20273;-63
2022/10/30 12:52:30;;;;;;;0.45;0.45;;;19.30;95.20;;;;;;3999553;29;20061;-62
2022/10/30 12:55:20;;;;;;;1.75;0.65;;;19.30;95.20;;;;;;3999240;29;20068;-62
2022/10/30 12:58:09;;;;;;;0.75;0.75;;;19.30;95.10;;;;;;3999988;29;20810;-61
2022/10/30 13:00:57;;;;;;;0.10;0.10;;;19.30;95.10;;;;;;4019564;29;20131;-62
2022/10/30 13:03:42;;;;;;;0.80;0.80;;;19.30;95.10;;;;;;4006637;29;20065;-62
2022/10/30 13:06:28;;;;;;;0.03;0.03;;;19.30;95.00;;;;;;4000864;29;20132;-62
2022/10/30 13:09:18;;;;;;;2.63;2.15;;;19.30;95.00;;;;;;4016465;29;20129;-63
2022/10/30 13:12:05;;;;;;;1.23;0.90;;;19.30;95.00;;;;;;4027303;29;20064;-64
2022/10/30 13:14:51;;;;;;;0.17;0.17;;;19.30;95.00;;;;;;4023104;29;20063;-61
2022/10/30 13:17:32;;;;;;;0.00;0.00;;;19.30;95.00;;;;;;4002956;29;20065;-62
2022/10/30 13:20:15;;;;;;;0.47;0.47;;;19.30;95.00;;;;;;4014839;29;20065;-61
2022/10/30 13:23:01;;;;;;;0.82;0.82;;;19.30;95.00;;;;;;3999448;29;20048;-61
2022/10/30 13:26:02;;;;;;;0.10;0.10;;;19.30;94.90;;;;;;4000728;29;20636;-61
2022/10/30 13:28:50;;;;;;;0.98;0.98;;;19.30;94.90;;;;;;4001735;29;20065;-64
2022/10/30 13:31:38;;;;;;;5.93;1.08;;;19.30;94.90;;;;;;4015578;29;20087;-64
2022/10/30 13:34:44;;;;;;;0.15;0.15;;;19.30;94.90;;;;;;4008849;29;20085;-64
2022/10/30 13:37:32;;;;;;;0.20;0.20;;;19.30;94.90;;;;;;4008992;29;20059;-64
2022/10/30 13:40:19;;;;;;;0.38;0.38;;;19.30;94.90;;;;;;4014685;29;20582;-64
2022/10/30 13:43:14;;;;;;;0.38;0.38;;;19.30;94.90;;;;;;3999635;29;20213;-63
2022/10/30 13:46:12;;;;;;;0.38;0.38;;;19.30;94.90;;;;;;3998887;29;20568;-62
2022/10/30 13:49:08;;;;;;;0.30;0.30;;;19.30;94.90;;;;;;4003431;29;20064;-63
2022/10/30 13:51:55;;;;;;;0.03;0.03;;;19.30;94.90;;;;;;4013634;29;20051;-63
2022/10/30 13:54:40;;;;;;;1.17;1.17;;;19.30;94.90;;;;;;4013966;29;20069;-61
2022/10/30 13:57:28;;;;;;;1.30;0.93;;;19.30;94.90;;;;;;3999261;29;20069;-62
2022/10/30 14:00:16;;;;;;;0.03;0.03;;;19.30;94.90;;;;;;3999489;29;20963;-63
2022/10/30 14:03:21;;;;;;;0.00;0.00;;;19.30;94.90;;;;;;4006255;29;20052;-62
2022/10/30 14:06:12;;;;;;;1.20;0.90;;;19.40;94.90;;;;;;3998903;29;20248;-63
2022/10/30 14:08:59;;;;;;;0.13;0.13;;;19.30;94.90;;;;;;3999400;29;20821;-64
2022/10/30 14:11:40;;;;;;;1.70;1.63;;;19.40;94.90;;;;;;3987651;29;20073;-64
2022/10/30 14:14:29;;;;;;;0.32;0.32;;;19.40;94.90;;;;;;3984449;29;20215;-67
2022/10/30 14:17:13;;;;;;;0.63;0.63;;;19.40;94.90;;;;;;4000992;29;20065;-65
2022/10/30 14:20:26;;;;;;;0.10;0.10;;;19.30;94.80;;;;;;3999374;29;20065;-65
2022/10/30 14:23:08;;;;;;;0.10;0.10;;;19.40;94.90;;;;;;4013258;29;20104;-64
2022/10/30 14:26:12;;;;;;;0.00;0.00;;;19.40;94.80;;;;;;4013641;29;20141;-62
2022/10/30 14:28:55;;;;;;;0.00;0.00;;;19.40;94.80;;;;;;3990681;29;20060;-62